createdAt,value
2022-10-16T00:01:55.855Z,2.08
2022-10-16T00:07:16.499Z,3.42
2022-10-16T00:12:37.161Z,3.25
2022-10-16T00:17:57.685Z,2.78
2022-10-16T00:23:18.666Z,3.47
2022-10-16T00:28:39.275Z,3.05
2022-10-16T00:34:01.353Z,3.40
2022-10-16T00:39:23.215Z,6.55
2022-10-16T00:44:57.851Z,2.60
2022-10-16T00:50:31.780Z,4.18
2022-10-16T00:55:53.400Z,6.90
2022-10-16T01:01:14.853Z,3.72
2022-10-16T01:07:31.493Z,8.27
2022-10-16T01:13:08.964Z,3.15
2022-10-16T01:18:43.015Z,2.53
2022-10-16T01:24:28.179Z,4.47
2022-10-16T01:30:08.361Z,2.50
2022-10-16T01:35:44.320Z,5.00
2022-10-16T01:41:15.919Z,4.10
2022-10-16T01:46:40.432Z,3.80
2022-10-16T01:52:06.331Z,4.82
2022-10-16T01:57:28.601Z,4.78
2022-10-16T02:02:52.655Z,4.60
2022-10-16T02:08:13.837Z,2.83
2022-10-16T02:13:40.004Z,3.92
2022-10-16T02:19:00.849Z,3.60
2022-10-16T02:24:36.702Z,6.75
2022-10-16T02:30:14.056Z,2.83
2022-10-16T02:35:35.752Z,8.27
2022-10-16T02:40:57.853Z,4.43
2022-10-16T02:46:19.390Z,5.78
2022-10-16T02:51:40.139Z,4.65
2022-10-16T02:57:00.712Z,3.13
2022-10-16T03:02:21.357Z,4.25
2022-10-16T03:07:41.987Z,6.82
2022-10-16T03:13:02.656Z,2.70
2022-10-16T03:18:23.313Z,1.98
2022-10-16T03:23:43.956Z,3.40
2022-10-16T03:29:05.029Z,1.67
2022-10-16T03:34:25.761Z,1.50
2022-10-16T03:39:46.377Z,3.78
2022-10-16T03:45:07.319Z,2.42
2022-10-16T03:50:28.341Z,3.33
2022-10-16T03:55:48.915Z,1.95
2022-10-16T04:01:09.758Z,1.50
2022-10-16T04:06:30.382Z,1.50
2022-10-16T04:11:51.788Z,2.92
2022-10-16T04:17:12.659Z,4.75
2022-10-16T04:22:33.493Z,7.90
2022-10-16T04:27:54.975Z,4.25
2022-10-16T04:33:15.608Z,6.75
2022-10-16T04:38:38.477Z,6.40
2022-10-16T04:43:59.110Z,5.22
2022-10-16T04:49:20.098Z,4.63
2022-10-16T04:54:40.864Z,3.90
2022-10-16T05:00:01.855Z,3.90
2022-10-16T05:05:22.723Z,2.33
2022-10-16T05:10:44.605Z,2.28
2022-10-16T05:16:05.762Z,3.22
2022-10-16T05:21:26.736Z,1.88
2022-10-16T05:26:47.535Z,5.35
2022-10-16T05:32:09.253Z,3.58
2022-10-16T05:37:29.869Z,3.75
2022-10-16T05:42:50.496Z,3.47
2022-10-16T05:48:11.173Z,1.90
2022-10-16T05:53:34.761Z,1.77
2022-10-16T05:58:55.656Z,2.22
2022-10-16T06:04:16.419Z,1.50
2022-10-16T06:09:37.056Z,2.20
2022-10-16T06:14:57.723Z,1.40
2022-10-16T06:20:18.325Z,4.78
2022-10-16T06:25:38.975Z,1.35
2022-10-16T06:31:07.370Z,1.73
2022-10-16T06:36:29.191Z,3.15
2022-10-16T06:41:50.128Z,1.15
2022-10-16T06:47:10.782Z,2.08
2022-10-16T06:52:31.357Z,2.30
2022-10-16T06:57:51.847Z,1.30
2022-10-16T07:03:12.525Z,8.38
2022-10-16T07:08:34.962Z,1.70
2022-10-16T07:13:56.494Z,1.65
2022-10-16T07:19:18.761Z,1.33
2022-10-16T07:24:39.594Z,1.90
2022-10-16T07:30:03.683Z,1.35
2022-10-16T07:35:27.560Z,1.60
2022-10-16T07:40:48.865Z,3.00
2022-10-16T07:46:10.224Z,2.22
2022-10-16T07:51:32.120Z,2.25
2022-10-16T07:56:53.051Z,1.63
2022-10-16T08:02:13.874Z,1.42
2022-10-16T08:07:34.445Z,2.10
2022-10-16T08:12:55.183Z,4.50
2022-10-16T08:18:16.945Z,5.00
2022-10-16T08:23:37.863Z,4.82
2022-10-16T08:28:58.634Z,4.30
2022-10-16T08:34:19.429Z,6.22
2022-10-16T08:39:40.017Z,8.05
2022-10-16T08:45:16.753Z,4.03
2022-10-16T08:50:41.007Z,3.97
2022-10-16T08:56:01.733Z,3.30
2022-10-16T09:01:24.227Z,1.67
2022-10-16T09:07:06.098Z,1.17
2022-10-16T09:12:38.391Z,3.47
2022-10-16T09:18:13.678Z,3.15
2022-10-16T09:23:38.993Z,2.88
2022-10-16T09:28:59.899Z,2.88
2022-10-16T09:34:37.787Z,1.40
2022-10-16T09:39:58.761Z,2.08
2022-10-16T09:45:23.970Z,1.80
2022-10-16T09:50:44.636Z,1.95
2022-10-16T09:56:10.401Z,3.13
2022-10-16T10:01:39.895Z,1.80
2022-10-16T10:07:00.927Z,2.30
2022-10-16T10:12:27.010Z,3.88
2022-10-16T10:17:54.067Z,3.42
2022-10-16T10:23:27.425Z,1.45
2022-10-16T10:28:59.047Z,1.83
2022-10-16T10:34:38.310Z,1.88
2022-10-16T10:40:02.100Z,3.10
2022-10-16T10:45:47.367Z,3.25
2022-10-16T10:51:32.654Z,2.38
2022-10-16T10:57:10.849Z,1.60
2022-10-16T11:02:55.918Z,4.75
2022-10-16T11:08:27.348Z,1.80
2022-10-16T11:14:15.695Z,1.65
2022-10-16T11:20:17.207Z,1.67
2022-10-16T11:25:40.195Z,0.60
2022-10-16T11:31:14.112Z,2.90
2022-10-16T11:36:40.379Z,0.98
2022-10-16T11:42:09.375Z,1.02
2022-10-16T11:47:59.871Z,0.60
2022-10-16T11:53:44.143Z,3.10
2022-10-16T11:59:19.334Z,1.95
2022-10-16T12:04:47.918Z,1.98
2022-10-16T12:10:27.358Z,3.83
2022-10-16T12:15:59.304Z,0.98
2022-10-16T12:21:31.955Z,2.65
2022-10-16T12:26:53.948Z,0.90
2022-10-16T12:32:53.141Z,3.15
2022-10-16T12:38:21.001Z,2.78
2022-10-16T12:43:49.027Z,3.00
2022-10-16T12:49:12.987Z,0.50
2022-10-16T12:54:39.764Z,3.10
2022-10-16T13:00:19.838Z,0.98
2022-10-16T13:06:08.307Z,0.73
2022-10-16T13:12:11.555Z,2.03
2022-10-16T13:17:57.477Z,0.40
2022-10-16T13:23:56.394Z,2.75
2022-10-16T13:29:17.383Z,0.77
2022-10-16T13:34:46.913Z,0.60
2022-10-16T13:40:26.032Z,1.65
2022-10-16T13:46:23.913Z,1.90
2022-10-16T13:51:59.428Z,5.80
2022-10-16T13:57:27.302Z,0.95
2022-10-16T14:02:55.882Z,2.05
2022-10-16T14:08:17.576Z,0.85
2022-10-16T14:13:44.348Z,3.40
2022-10-16T14:19:07.818Z,1.08
2022-10-16T14:24:32.120Z,1.10
2022-10-16T14:30:16.682Z,1.10
2022-10-16T14:35:39.881Z,5.30
2022-10-16T14:41:01.357Z,3.75
2022-10-16T14:46:29.787Z,2.33
2022-10-16T14:51:50.568Z,3.60
2022-10-16T14:57:20.495Z,4.50
2022-10-16T15:02:41.513Z,11.13
2022-10-16T15:08:02.236Z,2.42
2022-10-16T15:13:22.823Z,2.85
2022-10-16T15:18:43.932Z,12.43
2022-10-16T15:24:15.267Z,20.67
2022-10-16T15:29:38.501Z,23.83
2022-10-16T15:34:59.205Z,27.55
2022-10-16T15:40:21.676Z,13.50
2022-10-16T15:45:42.500Z,17.42
2022-10-16T15:51:07.412Z,5.70
2022-10-16T15:56:29.593Z,9.80
2022-10-16T16:01:50.262Z,9.57
2022-10-16T16:07:11.097Z,5.00
2022-10-16T16:12:32.041Z,5.10
2022-10-16T16:17:52.719Z,5.90
2022-10-16T16:23:13.425Z,4.13
2022-10-16T16:28:34.762Z,4.70
2022-10-16T16:33:57.218Z,3.78
2022-10-16T16:39:18.980Z,6.82
2022-10-16T16:44:39.921Z,3.80
2022-10-16T16:50:00.656Z,8.45
2022-10-16T16:55:21.295Z,9.77
2022-10-16T17:00:56.679Z,8.85
2022-10-16T17:06:20.805Z,5.70
2022-10-16T17:11:43.967Z,7.47
2022-10-16T17:17:07.868Z,6.03
2022-10-16T17:22:29.167Z,6.25
2022-10-16T17:27:50.146Z,5.47
2022-10-16T17:33:13.116Z,5.50
2022-10-16T17:38:34.845Z,5.70
2022-10-16T17:43:55.725Z,6.95
2022-10-16T17:49:17.988Z,6.07
2022-10-16T17:54:39.890Z,5.55
2022-10-16T18:00:02.852Z,6.35
2022-10-16T18:05:25.343Z,3.65
2022-10-16T18:10:50.162Z,5.47
2022-10-16T18:16:13.263Z,5.18
2022-10-16T18:21:33.935Z,9.32
2022-10-16T18:26:58.928Z,5.75
2022-10-16T18:32:19.695Z,4.30
2022-10-16T18:37:40.509Z,7.63
2022-10-16T18:43:01.208Z,5.72
2022-10-16T18:48:22.100Z,4.82
2022-10-16T18:53:44.806Z,6.35
2022-10-16T18:59:07.729Z,6.68
2022-10-16T19:04:28.962Z,6.18
2022-10-16T19:09:49.741Z,5.00
2022-10-16T19:15:11.011Z,4.63
2022-10-16T19:20:32.843Z,9.07
2022-10-16T19:25:53.814Z,9.77
2022-10-16T19:31:16.920Z,9.50
2022-10-16T19:36:39.482Z,7.78
2022-10-16T19:42:00.514Z,5.38
2022-10-16T19:47:23.058Z,8.18
2022-10-16T19:52:43.840Z,6.30
2022-10-16T19:58:04.585Z,6.32
2022-10-16T20:03:25.931Z,9.10
2022-10-16T20:08:49.101Z,9.98
2022-10-16T20:14:10.064Z,10.32
2022-10-16T20:19:31.384Z,8.55
2022-10-16T20:24:52.072Z,6.75
2022-10-16T20:30:12.847Z,6.15
2022-10-16T20:35:38.748Z,7.18
2022-10-16T20:41:04.079Z,8.40
2022-10-16T20:46:27.134Z,12.23
2022-10-16T20:51:49.997Z,8.85
2022-10-16T20:57:10.694Z,11.07
2022-10-16T21:02:31.724Z,13.05
2022-10-16T21:07:52.630Z,15.38
2022-10-16T21:13:13.430Z,10.57
2022-10-16T21:18:34.940Z,9.02
2022-10-16T21:23:57.558Z,9.38
2022-10-16T21:29:19.189Z,9.43
2022-10-16T21:34:40.319Z,9.77
2022-10-16T21:40:01.320Z,8.55
2022-10-16T21:45:21.975Z,9.63
2022-10-16T21:50:48.242Z,10.65
2022-10-16T21:56:14.003Z,10.50
2022-10-16T22:01:35.878Z,8.85
2022-10-16T22:06:56.991Z,14.75
2022-10-16T22:12:19.752Z,13.55
2022-10-16T22:17:40.385Z,12.85
2022-10-16T22:23:01.107Z,8.38
2022-10-16T22:28:22.083Z,11.10
2022-10-16T22:33:43.671Z,8.13
2022-10-16T22:39:05.671Z,9.27
2022-10-16T22:44:26.321Z,13.98
2022-10-16T22:49:46.944Z,13.45
2022-10-16T22:55:07.812Z,14.50
2022-10-16T23:00:28.714Z,12.07
2022-10-16T23:05:49.643Z,9.73
2022-10-16T23:11:12.970Z,9.85
2022-10-16T23:16:33.740Z,10.45
2022-10-16T23:21:54.317Z,12.50
2022-10-16T23:27:14.986Z,14.85
2022-10-16T23:32:35.828Z,13.88
2022-10-16T23:37:58.195Z,10.30
2022-10-16T23:43:18.997Z,9.93
2022-10-16T23:48:40.061Z,9.75
2022-10-16T23:54:00.589Z,10.15
2022-10-16T23:59:21.114Z,7.97
